createdAt,value
2018-12-14T00:01:28.546Z,2.50
2018-12-14T00:03:56.783Z,2.50
2018-12-14T00:06:25.007Z,2.50
2018-12-14T00:08:53.158Z,2.50
2018-12-14T00:11:21.361Z,2.50
2018-12-14T00:13:49.690Z,2.40
2018-12-14T00:16:17.914Z,2.40
2018-12-14T00:18:46.222Z,2.40
2018-12-14T00:21:14.391Z,2.40
2018-12-14T00:23:42.618Z,2.30
2018-12-14T00:26:11.987Z,2.30
2018-12-14T00:28:40.239Z,2.20
2018-12-14T00:31:08.402Z,2.20
2018-12-14T00:33:36.607Z,2.20
2018-12-14T00:36:05.003Z,2.20
2018-12-14T00:38:33.494Z,2.10
2018-12-14T00:41:01.644Z,2.20
2018-12-14T00:43:29.879Z,2.20
2018-12-14T00:45:58.233Z,2.30
2018-12-14T00:48:26.364Z,2.30
2018-12-14T00:50:54.530Z,2.30
2018-12-14T00:53:22.706Z,2.40
2018-12-14T00:55:50.865Z,2.40
2018-12-14T00:58:19.011Z,2.50
2018-12-14T01:00:47.155Z,2.50
2018-12-14T01:03:15.330Z,2.60
2018-12-14T01:05:43.493Z,2.60
2018-12-14T01:08:11.639Z,2.60
2018-12-14T01:10:39.970Z,2.60
2018-12-14T01:13:08.142Z,2.60
2018-12-14T01:15:36.305Z,2.60
2018-12-14T01:18:04.536Z,2.60
2018-12-14T01:20:32.762Z,2.60
2018-12-14T01:23:00.986Z,2.60
2018-12-14T01:25:29.161Z,2.60
2018-12-14T01:27:57.484Z,2.50
2018-12-14T01:30:25.638Z,2.60
2018-12-14T01:32:53.807Z,2.60
2018-12-14T01:35:21.959Z,2.50
2018-12-14T01:37:50.112Z,2.50
2018-12-14T01:40:18.338Z,2.50
2018-12-14T01:42:46.523Z,2.50
2018-12-14T01:45:14.727Z,2.50
2018-12-14T01:47:42.874Z,2.50
2018-12-14T01:50:11.032Z,2.60
2018-12-14T01:52:39.526Z,2.50
2018-12-14T01:55:07.851Z,2.50
2018-12-14T01:57:36.409Z,2.40
2018-12-14T02:00:05.256Z,2.50
2018-12-14T02:02:33.710Z,2.50
2018-12-14T02:05:01.854Z,2.50
2018-12-14T02:07:30.069Z,2.50
2018-12-14T02:09:58.250Z,2.50
2018-12-14T02:12:27.162Z,2.50
2018-12-14T02:14:55.378Z,2.50
2018-12-14T02:17:23.571Z,2.50
2018-12-14T02:19:51.943Z,2.50
2018-12-14T02:22:20.126Z,2.50
2018-12-14T02:24:49.003Z,2.50
2018-12-14T02:27:17.203Z,2.50
2018-12-14T02:29:45.921Z,2.50
2018-12-14T02:32:14.832Z,2.50
2018-12-14T02:34:43.149Z,2.50
2018-12-14T02:37:11.366Z,2.50
2018-12-14T02:39:39.585Z,2.60
2018-12-14T02:42:07.777Z,2.50
2018-12-14T02:44:35.961Z,2.50
2018-12-14T02:47:04.155Z,2.50
2018-12-14T02:49:32.663Z,2.60
2018-12-14T02:52:00.813Z,2.60
2018-12-14T02:54:29.009Z,2.60
2018-12-14T02:56:57.163Z,2.60
2018-12-14T02:59:25.394Z,2.60
2018-12-14T03:01:54.125Z,2.50
2018-12-14T03:04:22.276Z,2.50
2018-12-14T03:06:50.514Z,2.60
2018-12-14T03:09:18.715Z,2.50
2018-12-14T03:11:46.858Z,2.50
2018-12-14T03:14:15.085Z,2.50
2018-12-14T03:16:43.232Z,2.50
2018-12-14T03:19:11.368Z,2.50
2018-12-14T03:21:39.585Z,2.50
2018-12-14T03:24:07.803Z,2.50
2018-12-14T03:26:36.008Z,2.50
2018-12-14T03:29:04.162Z,2.50
2018-12-14T03:31:32.328Z,2.50
2018-12-14T03:34:01.443Z,2.50
2018-12-14T03:36:29.650Z,2.50
2018-12-14T03:38:57.869Z,2.50
2018-12-14T03:41:26.751Z,2.50
2018-12-14T03:43:54.990Z,2.40
2018-12-14T03:46:23.172Z,2.50
2018-12-14T03:48:51.340Z,2.40
2018-12-14T03:51:22.463Z,2.40
2018-12-14T03:53:50.713Z,2.40
2018-12-14T03:56:18.878Z,2.40
2018-12-14T03:58:47.100Z,2.40
2018-12-14T04:01:15.264Z,2.40
2018-12-14T04:03:43.671Z,2.40
2018-12-14T04:06:11.853Z,2.40
2018-12-14T04:08:40.099Z,2.40
2018-12-14T04:11:08.740Z,2.50
2018-12-14T04:13:38.654Z,2.40
2018-12-14T04:16:07.485Z,2.40
2018-12-14T04:18:35.685Z,2.40
2018-12-14T04:21:05.013Z,2.50
2018-12-14T04:23:33.291Z,2.50
2018-12-14T04:26:01.478Z,2.50
2018-12-14T04:28:29.701Z,2.50
2018-12-14T04:30:57.837Z,2.40
2018-12-14T04:33:26.056Z,2.40
2018-12-14T04:35:54.390Z,2.40
2018-12-14T04:38:22.620Z,2.40
2018-12-14T04:40:50.776Z,2.40
2018-12-14T04:43:18.955Z,2.40
2018-12-14T04:45:47.225Z,2.30
2018-12-14T04:48:15.457Z,2.30
2018-12-14T04:50:43.666Z,2.30
2018-12-14T04:53:11.911Z,2.30
2018-12-14T04:55:40.127Z,2.30
2018-12-14T04:58:08.340Z,2.30
2018-12-14T05:00:36.500Z,2.40
2018-12-14T05:03:04.700Z,2.30
2018-12-14T05:05:32.861Z,2.30
2018-12-14T05:08:01.069Z,2.30
2018-12-14T05:10:29.300Z,2.30
2018-12-14T05:12:57.472Z,2.30
2018-12-14T05:15:26.702Z,2.30
2018-12-14T05:17:54.900Z,2.30
2018-12-14T05:20:23.078Z,2.30
2018-12-14T05:22:51.294Z,2.30
2018-12-14T05:25:20.347Z,2.30
2018-12-14T05:27:48.498Z,2.30
2018-12-14T05:30:16.800Z,2.30
2018-12-14T05:32:45.016Z,2.30
2018-12-14T05:35:13.278Z,2.30
2018-12-14T05:37:41.491Z,2.30
2018-12-14T05:40:09.787Z,2.30
2018-12-14T05:42:38.012Z,2.20
2018-12-14T05:45:06.602Z,2.20
2018-12-14T05:47:34.862Z,2.20
2018-12-14T05:50:03.206Z,2.20
2018-12-14T05:52:31.922Z,2.20
2018-12-14T05:55:00.150Z,2.20
2018-12-14T05:57:28.825Z,2.20
2018-12-14T05:59:56.982Z,2.20
2018-12-14T06:02:25.287Z,2.20
2018-12-14T06:04:53.535Z,2.20
2018-12-14T06:07:21.785Z,2.20
2018-12-14T06:09:49.987Z,2.20
2018-12-14T06:12:18.377Z,2.20
2018-12-14T06:14:46.595Z,2.20
2018-12-14T06:17:15.818Z,2.20
2018-12-14T06:19:44.015Z,2.20
2018-12-14T06:22:12.225Z,2.20
2018-12-14T06:24:41.326Z,2.20
2018-12-14T06:27:09.471Z,2.20
2018-12-14T06:29:37.685Z,2.20
2018-12-14T06:32:05.906Z,2.20
2018-12-14T06:34:34.114Z,2.10
2018-12-14T06:37:02.707Z,2.10
2018-12-14T06:39:31.112Z,2.10
2018-12-14T06:41:59.504Z,2.10
2018-12-14T06:44:27.663Z,2.10
2018-12-14T06:46:55.820Z,2.10
2018-12-14T06:49:24.031Z,2.10
2018-12-14T06:51:52.266Z,2.10
2018-12-14T06:54:20.489Z,2.10
2018-12-14T06:56:48.702Z,2.10
2018-12-14T06:59:16.864Z,2.10
2018-12-14T07:01:45.078Z,2.10
2018-12-14T07:04:13.367Z,2.10
2018-12-14T07:06:41.638Z,2.10
2018-12-14T07:09:10.429Z,2.10
2018-12-14T07:11:38.622Z,2.10
2018-12-14T07:14:06.767Z,2.10
2018-12-14T07:16:34.992Z,2.20
2018-12-14T07:19:03.192Z,2.20
2018-12-14T07:21:31.388Z,2.10
2018-12-14T07:23:59.597Z,2.10
2018-12-14T07:26:28.107Z,2.10
2018-12-14T07:28:56.345Z,2.10
2018-12-14T07:31:24.708Z,2.10
2018-12-14T07:33:53.686Z,2.10
2018-12-14T07:36:21.901Z,2.10
2018-12-14T07:38:50.061Z,2.10
2018-12-14T07:41:18.303Z,2.10
2018-12-14T07:43:46.481Z,2.10
2018-12-14T07:46:14.640Z,2.10
2018-12-14T07:48:42.826Z,2.20
2018-12-14T07:51:11.068Z,2.20
2018-12-14T07:53:39.357Z,2.10
2018-12-14T07:56:08.426Z,2.10
2018-12-14T07:58:38.383Z,2.10
2018-12-14T08:01:06.716Z,2.10
2018-12-14T08:03:35.415Z,2.10
2018-12-14T08:06:03.660Z,2.10
2018-12-14T08:08:31.942Z,2.10
2018-12-14T08:11:00.087Z,2.20
2018-12-14T08:13:34.683Z,2.10
2018-12-14T08:15:58.411Z,2.20
2018-12-14T08:18:26.692Z,2.20
2018-12-14T08:20:54.915Z,2.10
2018-12-14T08:23:23.424Z,2.10
2018-12-14T08:25:51.672Z,2.10
2018-12-14T08:28:19.895Z,2.10
2018-12-14T08:30:48.171Z,2.20
2018-12-14T08:33:16.349Z,2.20
2018-12-14T08:35:44.513Z,2.20
2018-12-14T08:38:12.681Z,2.20
2018-12-14T08:40:41.314Z,2.20
2018-12-14T08:43:10.330Z,2.20
2018-12-14T08:45:38.599Z,2.20
2018-12-14T08:48:06.935Z,2.20
2018-12-14T08:50:35.087Z,2.20
2018-12-14T08:53:03.246Z,2.20
2018-12-14T08:55:31.412Z,2.30
2018-12-14T08:57:59.573Z,2.30
2018-12-14T09:00:27.745Z,2.30
2018-12-14T09:02:55.934Z,2.30
2018-12-14T09:05:24.098Z,2.30
2018-12-14T09:07:52.372Z,2.30
2018-12-14T09:10:20.498Z,2.30
2018-12-14T09:12:48.655Z,2.30
2018-12-14T09:15:16.813Z,2.40
2018-12-14T09:17:44.953Z,2.40
2018-12-14T09:20:13.274Z,2.40
2018-12-14T09:22:41.475Z,2.40
2018-12-14T09:25:09.747Z,2.40
2018-12-14T09:27:37.937Z,2.50
2018-12-14T09:30:06.179Z,2.50
2018-12-14T09:32:35.704Z,2.50
2018-12-14T09:35:04.377Z,2.50
2018-12-14T09:37:32.570Z,2.60
2018-12-14T09:40:00.810Z,2.60
2018-12-14T09:42:29.029Z,2.60
2018-12-14T09:44:57.271Z,2.60
2018-12-14T09:47:25.504Z,2.60
2018-12-14T09:49:53.643Z,2.60
2018-12-14T09:52:21.921Z,2.70
2018-12-14T09:54:50.845Z,2.70
2018-12-14T09:57:19.487Z,2.70
2018-12-14T09:59:47.699Z,2.70
2018-12-14T10:02:16.067Z,2.70
2018-12-14T10:04:44.339Z,2.80
2018-12-14T10:07:12.498Z,2.80
2018-12-14T10:09:40.751Z,2.80
2018-12-14T10:12:08.909Z,2.80
2018-12-14T10:14:37.064Z,2.80
2018-12-14T10:17:05.275Z,2.80
2018-12-14T10:19:33.429Z,2.90
2018-12-14T10:22:01.582Z,3.00
2018-12-14T10:24:29.839Z,3.00
2018-12-14T10:26:58.506Z,3.00
2018-12-14T10:29:26.715Z,3.10
2018-12-14T10:31:54.881Z,3.00
2018-12-14T10:34:23.902Z,3.10
2018-12-14T10:36:52.161Z,3.10
2018-12-14T10:39:20.346Z,3.10
2018-12-14T10:41:48.483Z,3.10
2018-12-14T10:44:16.697Z,3.10
2018-12-14T10:46:44.937Z,3.20
2018-12-14T10:49:13.201Z,3.20
2018-12-14T10:51:41.358Z,3.20
2018-12-14T10:54:09.564Z,3.20
2018-12-14T10:56:37.726Z,3.20
2018-12-14T10:59:05.874Z,3.20
2018-12-14T11:04:30.030Z,3.20
2018-12-14T11:06:58.209Z,3.30
2018-12-14T11:09:26.363Z,3.30
2018-12-14T11:11:54.509Z,3.40
2018-12-14T11:14:22.740Z,3.30
2018-12-14T11:16:50.983Z,3.40
2018-12-14T11:19:19.182Z,3.30
2018-12-14T11:21:47.337Z,3.30
2018-12-14T11:24:15.533Z,3.30
2018-12-14T11:26:43.756Z,3.40
2018-12-14T11:29:11.985Z,3.40
2018-12-14T11:31:40.135Z,3.40
2018-12-14T11:34:08.358Z,3.40
2018-12-14T11:36:36.653Z,3.40
2018-12-14T11:39:05.865Z,3.40
2018-12-14T11:41:34.287Z,3.40
2018-12-14T11:44:02.506Z,3.40
2018-12-14T11:46:30.644Z,3.40
2018-12-14T11:48:58.819Z,3.40
2018-12-14T11:51:27.287Z,3.40
2018-12-14T11:53:55.420Z,3.40
2018-12-14T11:56:23.627Z,3.50
2018-12-14T11:58:51.872Z,3.50
2018-12-14T12:01:20.168Z,3.50
2018-12-14T12:03:48.365Z,3.50
2018-12-14T12:06:16.626Z,3.40
2018-12-14T12:08:45.070Z,3.50
2018-12-14T12:11:13.226Z,3.50
2018-12-14T12:13:41.821Z,3.50
2018-12-14T12:16:10.012Z,3.50
2018-12-14T12:18:38.305Z,3.50
2018-12-14T12:21:06.487Z,3.50
2018-12-14T12:23:34.691Z,3.50
2018-12-14T12:26:02.836Z,3.50
2018-12-14T12:28:30.975Z,3.50
2018-12-14T12:30:59.135Z,3.50
2018-12-14T12:33:27.377Z,3.50
2018-12-14T12:35:55.578Z,3.50
2018-12-14T12:38:23.748Z,3.50
2018-12-14T12:40:52.092Z,3.40
2018-12-14T12:43:20.357Z,3.40
2018-12-14T12:45:48.514Z,3.50
2018-12-14T12:48:17.067Z,3.50
2018-12-14T12:50:45.276Z,3.50
2018-12-14T12:53:15.427Z,3.50
2018-12-14T12:55:43.554Z,3.40
2018-12-14T12:58:11.778Z,3.50
2018-12-14T13:00:39.967Z,3.50
2018-12-14T13:03:08.142Z,3.40
2018-12-14T13:05:36.371Z,3.40
2018-12-14T13:08:04.574Z,3.40
2018-12-14T13:10:32.707Z,3.40
2018-12-14T13:13:00.867Z,3.40
2018-12-14T13:15:29.048Z,3.40
2018-12-14T13:17:57.186Z,3.40
2018-12-14T13:20:25.432Z,3.40
2018-12-14T13:22:53.688Z,3.40
2018-12-14T13:25:21.846Z,3.30
2018-12-14T13:27:50.031Z,3.30
2018-12-14T13:30:18.179Z,3.30
2018-12-14T13:32:46.398Z,3.20
2018-12-14T13:35:14.542Z,3.20
2018-12-14T13:37:42.882Z,3.20
2018-12-14T13:40:11.034Z,3.20
2018-12-14T13:42:39.387Z,3.10
2018-12-14T13:45:08.729Z,3.10
2018-12-14T13:47:36.883Z,3.10
2018-12-14T13:50:05.509Z,3.10
2018-12-14T13:52:33.795Z,3.10
2018-12-14T13:55:02.029Z,3.10
2018-12-14T13:57:30.198Z,3.10
2018-12-14T13:59:58.339Z,3.10
2018-12-14T14:02:26.487Z,3.00
2018-12-14T14:04:54.682Z,3.10
2018-12-14T14:07:22.895Z,3.10
2018-12-14T14:09:51.091Z,3.00
2018-12-14T14:12:19.354Z,3.00
2018-12-14T14:14:52.975Z,3.00
2018-12-14T14:17:17.758Z,3.00
2018-12-14T14:19:46.059Z,2.90
2018-12-14T14:22:14.490Z,2.90
2018-12-14T14:24:42.653Z,2.90
2018-12-14T14:27:10.810Z,2.90
2018-12-14T14:29:38.962Z,2.80
2018-12-14T14:32:07.109Z,2.80
2018-12-14T14:34:35.335Z,2.80
2018-12-14T14:37:03.529Z,2.80
2018-12-14T14:39:31.674Z,2.80
2018-12-14T14:41:59.843Z,2.70
2018-12-14T14:44:27.991Z,2.70
2018-12-14T14:46:56.868Z,2.70
2018-12-14T14:49:25.034Z,2.70
2018-12-14T14:51:53.367Z,2.70
2018-12-14T14:54:21.513Z,2.70
2018-12-14T14:56:49.696Z,2.60
2018-12-14T14:59:17.842Z,2.60
2018-12-14T15:01:46.131Z,2.60
2018-12-14T15:04:15.834Z,2.60
2018-12-14T15:06:44.182Z,2.50
2018-12-14T15:09:12.554Z,2.50
2018-12-14T15:11:40.702Z,2.50
2018-12-14T15:14:08.957Z,2.50
2018-12-14T15:16:37.159Z,2.50
2018-12-14T15:19:05.326Z,2.40
2018-12-14T15:21:33.490Z,2.40
2018-12-14T15:24:01.729Z,2.40
2018-12-14T15:26:29.893Z,2.40
2018-12-14T15:28:58.117Z,2.40
2018-12-14T15:31:26.273Z,2.30
2018-12-14T15:33:54.442Z,2.30
2018-12-14T15:36:22.599Z,2.30
2018-12-14T15:38:50.738Z,2.30
2018-12-14T15:41:18.983Z,2.30
2018-12-14T15:43:48.047Z,2.30
2018-12-14T15:46:16.442Z,2.30
2018-12-14T15:48:44.618Z,2.30
2018-12-14T15:51:12.818Z,2.30
2018-12-14T15:53:42.004Z,2.30
2018-12-14T15:56:10.183Z,2.30
2018-12-14T15:58:38.336Z,2.30
2018-12-14T16:01:06.596Z,2.30
2018-12-14T16:03:34.773Z,2.30
2018-12-14T16:06:03.874Z,2.30
2018-12-14T16:08:32.017Z,2.30
2018-12-14T16:11:00.186Z,2.30
2018-12-14T16:13:28.338Z,2.30
2018-12-14T16:15:56.585Z,2.30
2018-12-14T16:18:24.755Z,2.40
2018-12-14T16:20:52.911Z,2.30
2018-12-14T16:23:21.080Z,2.30
2018-12-14T16:25:49.251Z,2.30
2018-12-14T16:28:17.902Z,2.30
2018-12-14T16:30:46.050Z,2.30
2018-12-14T16:33:14.208Z,2.30
2018-12-14T16:35:42.478Z,2.20
2018-12-14T16:38:10.708Z,2.20
2018-12-14T16:40:38.936Z,2.20
2018-12-14T16:43:08.195Z,2.20
2018-12-14T16:45:36.402Z,2.20
2018-12-14T16:48:04.583Z,2.10
2018-12-14T16:50:32.843Z,2.10
2018-12-14T16:53:00.992Z,2.10
2018-12-14T16:55:29.622Z,2.00
2018-12-14T16:57:58.022Z,2.00
2018-12-14T17:00:26.176Z,2.00
2018-12-14T17:02:54.429Z,2.00
2018-12-14T17:05:22.578Z,2.00
2018-12-14T17:07:50.819Z,2.00
2018-12-14T17:10:18.983Z,1.90
2018-12-14T17:12:47.605Z,1.90
2018-12-14T17:15:15.755Z,1.90
2018-12-14T17:17:43.927Z,1.90
2018-12-14T17:20:12.210Z,1.90
2018-12-14T17:22:40.347Z,1.90
2018-12-14T17:25:08.499Z,1.90
2018-12-14T17:27:36.662Z,1.90
2018-12-14T17:30:05.925Z,1.90
2018-12-14T17:32:34.120Z,1.90
2018-12-14T17:35:02.426Z,1.90
2018-12-14T17:37:30.586Z,1.90
2018-12-14T17:39:58.767Z,1.90
2018-12-14T17:42:26.996Z,1.80
2018-12-14T17:44:55.249Z,1.80
2018-12-14T17:47:23.407Z,1.80
2018-12-14T17:49:51.552Z,1.80
2018-12-14T17:52:19.762Z,1.80
2018-12-14T17:54:48.046Z,1.80
2018-12-14T17:57:16.199Z,1.80
2018-12-14T17:59:44.383Z,1.80
2018-12-14T18:02:13.312Z,1.80
2018-12-14T18:04:41.455Z,1.80
2018-12-14T18:07:09.621Z,1.70
2018-12-14T18:09:37.771Z,1.70
2018-12-14T18:12:06.013Z,1.70
2018-12-14T18:14:34.316Z,1.70
2018-12-14T18:17:02.635Z,1.70
2018-12-14T18:19:30.794Z,1.70
2018-12-14T18:21:59.025Z,1.70
2018-12-14T18:24:27.238Z,1.70
2018-12-14T18:26:55.485Z,1.70
2018-12-14T18:29:23.635Z,1.70
2018-12-14T18:31:52.081Z,1.60
2018-12-14T18:34:20.274Z,1.60
2018-12-14T18:36:48.618Z,1.60
2018-12-14T18:39:17.198Z,1.60
2018-12-14T18:41:45.356Z,1.60
2018-12-14T18:44:13.523Z,1.60
2018-12-14T18:46:41.679Z,1.50
2018-12-14T18:49:09.839Z,1.60
2018-12-14T18:51:38.037Z,1.50
2018-12-14T18:54:06.238Z,1.50
2018-12-14T18:56:34.501Z,1.50
2018-12-14T18:59:02.795Z,1.50
2018-12-14T19:01:30.999Z,1.50
2018-12-14T19:04:00.122Z,1.50
2018-12-14T19:06:29.193Z,1.40
2018-12-14T19:08:57.361Z,1.40
2018-12-14T19:11:25.511Z,1.40
2018-12-14T19:13:53.686Z,1.40
2018-12-14T19:16:21.856Z,1.40
2018-12-14T19:18:49.999Z,1.40
2018-12-14T19:21:18.156Z,1.40
2018-12-14T19:23:46.315Z,1.40
2018-12-14T19:26:14.465Z,1.40
2018-12-14T19:28:46.848Z,1.40
2018-12-14T19:31:15.764Z,1.40
2018-12-14T19:33:43.999Z,1.40
2018-12-14T19:36:12.308Z,1.40
2018-12-14T19:38:40.561Z,1.40
2018-12-14T19:41:08.811Z,1.30
2018-12-14T19:43:37.021Z,1.30
2018-12-14T19:46:06.520Z,1.30
2018-12-14T19:48:34.938Z,1.30
2018-12-14T19:51:03.506Z,1.30
2018-12-14T19:53:31.680Z,1.30
2018-12-14T19:55:59.850Z,1.30
2018-12-14T19:58:28.759Z,1.30
2018-12-14T20:00:56.978Z,1.30
2018-12-14T20:03:25.114Z,1.30
2018-12-14T20:05:53.419Z,1.30
2018-12-14T20:08:21.584Z,1.30
2018-12-14T20:10:49.862Z,1.20
2018-12-14T20:13:18.055Z,1.20
2018-12-14T20:15:46.208Z,1.20
2018-12-14T20:18:14.390Z,1.20
2018-12-14T20:20:42.664Z,1.20
2018-12-14T20:23:10.881Z,1.20
2018-12-14T20:25:39.066Z,1.10
2018-12-14T20:28:07.858Z,1.10
2018-12-14T20:30:36.027Z,1.10
2018-12-14T20:33:04.186Z,1.10
2018-12-14T20:35:32.519Z,1.10
2018-12-14T20:38:00.779Z,1.10
2018-12-14T20:40:28.931Z,1.20
2018-12-14T20:42:57.087Z,1.20
2018-12-14T20:45:25.249Z,1.20
2018-12-14T20:47:53.401Z,1.20
2018-12-14T20:50:21.559Z,1.20
2018-12-14T20:52:49.730Z,1.20
2018-12-14T20:55:17.888Z,1.20
2018-12-14T20:57:46.041Z,1.20
2018-12-14T21:00:14.247Z,1.20
2018-12-14T21:02:42.413Z,1.10
2018-12-14T21:05:10.564Z,1.10
2018-12-14T21:07:38.727Z,1.10
2018-12-14T21:10:07.238Z,1.10
2018-12-14T21:12:35.378Z,1.10
2018-12-14T21:15:04.615Z,1.10
2018-12-14T21:17:32.770Z,1.10
2018-12-14T21:20:00.925Z,1.00
2018-12-14T21:22:29.082Z,1.00
2018-12-14T21:24:57.261Z,1.00
2018-12-14T21:27:25.838Z,1.00
2018-12-14T21:29:53.999Z,1.10
2018-12-14T21:32:22.195Z,1.10
2018-12-14T21:34:50.347Z,1.10
2018-12-14T21:37:19.700Z,1.10
2018-12-14T21:39:47.827Z,1.10
2018-12-14T21:42:15.987Z,1.10
2018-12-14T21:44:44.209Z,1.10
2018-12-14T21:47:12.365Z,1.10
2018-12-14T21:49:40.553Z,1.10
2018-12-14T21:52:08.795Z,1.10
2018-12-14T21:54:37.012Z,1.10
2018-12-14T21:57:05.275Z,1.00
2018-12-14T21:59:33.537Z,1.00
2018-12-14T22:02:01.751Z,0.90
2018-12-14T22:04:31.147Z,0.90
2018-12-14T22:06:59.534Z,0.80
2018-12-14T22:09:27.805Z,0.80
2018-12-14T22:11:55.966Z,0.80
2018-12-14T22:14:24.126Z,0.70
2018-12-14T22:16:52.314Z,0.70
2018-12-14T22:19:20.452Z,0.60
2018-12-14T22:21:48.731Z,0.60
2018-12-14T22:24:16.985Z,0.50
2018-12-14T22:26:45.168Z,0.50
2018-12-14T22:29:13.416Z,0.50
2018-12-14T22:31:41.568Z,0.50
2018-12-14T22:34:09.707Z,0.50
2018-12-14T22:36:37.898Z,0.50
2018-12-14T22:39:06.625Z,0.40
2018-12-14T22:41:36.383Z,0.40
2018-12-14T22:44:04.644Z,0.40
2018-12-14T22:46:32.842Z,0.40
2018-12-14T22:49:01.126Z,0.30
2018-12-14T22:51:29.291Z,0.30
2018-12-14T22:53:57.917Z,0.30
2018-12-14T22:56:26.138Z,0.20
2018-12-14T22:58:54.360Z,0.20
2018-12-14T23:01:22.526Z,0.30
2018-12-14T23:03:50.716Z,0.30
2018-12-14T23:06:18.890Z,0.30
2018-12-14T23:08:47.013Z,0.30
2018-12-14T23:11:15.278Z,0.30
2018-12-14T23:13:43.633Z,0.40
2018-12-14T23:16:11.811Z,0.40
2018-12-14T23:18:40.576Z,0.40
2018-12-14T23:21:08.744Z,0.50
2018-12-14T23:23:36.903Z,0.50
2018-12-14T23:26:05.082Z,0.60
2018-12-14T23:28:33.998Z,0.60
2018-12-14T23:31:02.192Z,0.60
2018-12-14T23:33:30.938Z,0.70
2018-12-14T23:35:59.158Z,0.70
2018-12-14T23:38:27.326Z,0.70
2018-12-14T23:40:55.702Z,0.70
2018-12-14T23:43:23.845Z,0.70
2018-12-14T23:45:52.013Z,0.70
2018-12-14T23:48:20.262Z,0.70
2018-12-14T23:50:48.570Z,0.70
2018-12-14T23:53:16.711Z,0.70
2018-12-14T23:55:44.946Z,0.70
2018-12-14T23:58:13.083Z,0.60
